• Join FlightAware (Why Join?)
  • Login
  • US Flag 
10:30PM EST


 

Airport Tracker/Info


-or-


 

Live Flight TrackerFlight Track Log ✈ N53NW ✈ 28-Oct-2013 ✈ KDAL - KOKC

Flight Track Log - Related Links

Times and Time Zones

All times are in EDT time to prevent confusion due to time zone crossing. See the N53NW flight status page for this flight to view local times or setup timezone preferences in your user account.

Time Position Orientation Groundspeed Altitude Reporting Facility
EDT Latitude Longitude Course Direction KTS MPH feet Rate Location/Type
11:04AM 32.8333 -96.8500 128° Southeast 167 192 1,300  Level Dallas / Fort Worth TRACON
11:05AM 32.8000 -96.8000 128° Southeast 211 243 4,600 3,000 Climbing Dallas / Fort Worth TRACON
11:06AM 32.7667 -96.7333 121° Southeast 256 295 7,000 1,200 Climbing Dallas / Fort Worth TRACON
11:07AM 32.7167 -96.6667 132° Southeast 275 316 7,100 420 Climbing Dallas / Fort Worth TRACON
11:08AM 32.7667 -96.6333 29° Northeast 250 288 7,900 960 Climbing Dallas / Fort Worth TRACON
11:09AM 32.8333 -96.6833 328° Northwest 277 319 9,200 2,040 Climbing Dallas / Fort Worth TRACON
11:11AM 32.9650 -96.7717 331° Northwest 276 318 14,100 2,640 Climbing Fort Worth Center
11:12AM 33.0331 -96.8189 330° Northwest 281 323 17,100 1,800 Climbing Fort Worth Center
11:13AM 33.1058 -96.8689 330° Northwest 295 339 17,900 420 Climbing Fort Worth Center
11:14AM 33.1928 -96.9300 330° Northwest 335 386 18,000  Climbing Fort Worth Center
11:15AM 33.2744 -96.9864 330° Northwest 337 388 18,000  Level Fort Worth Center
11:16AM 33.3606 -97.0453 330° Northwest 340 391 18,000  Level Fort Worth Center
11:17AM 33.4433 -97.1017 330° Northwest 343 395 18,000  Level Fort Worth Center
11:18AM 33.5522 -97.0964 North 367 422 18,000  Level Fort Worth Center
11:19AM 33.6533 -97.0822 North 366 421 18,000  Level Fort Worth Center
11:20AM 33.7617 -97.0692 North 364 419 18,000  Level Fort Worth Center
11:21AM 33.8658 -97.0553 North 362 417 18,000  Level Fort Worth Center
11:23AM 33.9592 -97.0424 North  Level FlightAware Approximate
11:23AM 34.0647 -97.0317 North 361 415 18,000  Level Fort Worth Center
11:24AM 34.1717 -97.0158 North 360 414 18,000  Level Fort Worth Center
11:25AM 34.2714 -97.0014 North 361 415 18,000  Level Fort Worth Center
11:26AM 34.3725 -96.9894 North 364 419 18,000  Level Fort Worth Center
11:27AM 34.4661 -97.0111 349° North 354 407 18,000  Level Fort Worth Center
11:28AM 34.5492 -97.0636 333° Northwest 338 389 18,000 -480 Level Fort Worth Center
11:30AM 34.6319 -97.1192 331° Northwest 340 391 17,100 -1,440 Descending Fort Worth Center
11:31AM 34.7303 -97.1858 331° Northwest 337 388 15,100 -1,920 Descending Fort Worth Center
11:31AM 34.7833 -97.2194 333° Northwest 327 376 13,900 -1,680 Descending Fort Worth Center
11:32AM 34.8092 -97.2394 328° Northwest 327 376 13,400 -1,860 Descending Fort Worth Center
11:32AM 34.8450 -97.2597 335° Northwest 325 374 12,600 -1,800 Descending Fort Worth Center
11:33AM 34.8894 -97.2917 329° Northwest 327 376 11,600 -1,380 Descending Fort Worth Center
11:33AM 34.9297 -97.3167 333° Northwest 324 373 11,100 -540 Descending Fort Worth Center
11:34AM 34.9697 -97.3406 334° Northwest 323 372 11,100 -120 Level Fort Worth Center
11:34AM 35.0092 -97.3642 334° Northwest 320 368 11,000 -780 Descending Fort Worth Center
11:35AM 35.0514 -97.3806 342° North 320 368 10,300 -1,620 Descending Fort Worth Center
11:35AM 35.0928 -97.3958 343° North 307 353 9,400 -1,800 Descending Fort Worth Center
11:36AM 35.1633 -97.4222 343° North 280 322 8,000 -1,680 Descending Fort Worth Center
11:37AM 35.2197 -97.4431 343° North 281 323 6,600 -1,680 Descending Fort Worth Center
11:37AM 35.2361 -97.4481 346° North 275 316 6,300 -1,740 Descending Fort Worth Center
11:38AM 35.3086 -97.4739 344° North 272 313 4,500 -1,260 Descending Fort Worth Center
11:39AM 35.3675 -97.4947 344° North 273 314 4,000 -480 Descending Fort Worth Center
11:39AM 35.3744 -97.4961 351° North 263 303 4,100 60 Climbing Fort Worth Center
11:40AM 35.4506 -97.4983 359° North 252 290 4,100 -60 Level Fort Worth Center
11:41AM 35.5125 -97.5028 357° North 257 296 4,000  Descending Fort Worth Center
11:41AM 35.5206 -97.5017 North 254 292 4,100  Climbing Fort Worth Center
11:42AM 35.5806 -97.5069 356° North 249 287 4,000  Descending Fort Worth Center
11:42AM 35.5844 -97.5086 341° North 228 262 4,100 60 Climbing Fort Worth Center
11:43AM 35.5997 -97.5678 288° West 185 213 4,100 -120 Level Fort Worth Center
11:43AM 35.6017 -97.5600 73° East 207 238 4,000 -1,020 Descending Fort Worth Center
11:44AM 35.5706 -97.6064 231° Southwest 169 194 3,100 -900 Descending Fort Worth Center
11:44AM 35.5692 -97.6078 219° Southwest 185 213 3,100  Level Fort Worth Center
11:45AM 35.5283 -97.6058 178° South 151 174 3,100 -120 Level Fort Worth Center
11:45AM 35.5267 -97.6075 219° Southwest 164 189 3,000 -240 Descending Fort Worth Center
11:46AM 35.4839 -97.6058 178° South 148 170 2,900 -120 Descending Fort Worth Center
11:46AM 35.4858 -97.6069 335° Northwest 155 178 2,900 -480 Level Fort Worth Center
11:47AM 35.4592 -97.6075 181° South 117 135 2,400 -540 Descending Fort Worth Center
11:48AM 35.4272 -97.6078 180° South 94 108 1,800 -540 Descending Fort Worth Center
11:48AM 35.4322 -97.6069 North 103 119 1,900 -420 Climbing Fort Worth Center
11:49AM 35.4014 -97.6064 179° South 102 117 1,400 -540 Descending Fort Worth Center